Middletown, OH (45044)

1:32 PM EST on February 09, 2016 (GMT -0500)
Bridle Creek | | Change Station
CLOSE
Current Station
Personal Weather Station
Location: Monroe, OH
Elevation: 748 ft
Nearby Weather Stations

Elev 748 ft 39.43 °N, 84.36 °W | Updated 5 seconds ago

Overcast
Overcast
23.8 °F
Feels Like 14 °F
N
8.8
Wind Variable Wind from West
Gusts 10.4 mph

Today
High -- | Low -- °F
--% Chance of Precip.
Yesterday
High -- | Low -- °F
Precip. -- in
Pressure 29.77 in
Visibility 10.0 miles
Clouds Overcast 2100 ft
Windchill 14 °F
Dew Point 19 °F
Humidity 83%
Rainfall 0.00 in
Snow Depth Not available.
7:37 AM 6:06 PM
New Moon, 2% visible
METAR KMWO 091815Z AUTO 27013G17KT 10SM OVC021 M03/M08 A2977 RMK AO2 T10281082
Pressure 29.77 in
Visibility 10.0 miles
Clouds Overcast 2100 ft
Windchill 14 °F
Dew Point 19 °F
Humidity 83%
Rainfall 0.00 in
Snow Depth Not available.
7:37 AM 6:06 PM
New Moon, 2% visible
METAR KMWO 091815Z AUTO 27013G17KT 10SM OVC021 M03/M08 A2977 RMK AO2 T10281082

10-Day Weather Forecast

Almanac

Astronomy

Feb. 09, 2016 Rise Set
Actual Time
Civil Twilight
Nautical Twilight
Astronomical Twilight
Moon
Length of Visible Light
Length of Day
Tomorrow will be .
, % of the Moon is Illuminated

Today's Extremes

State Highs State Lows

Community

WunderPhotos

Upload Photos

1,891,656 photos uploaded!

WunderBlog® & News

Nearby

Air Quality

  Air Quality AQ Index Pollutant
Not available.

Snow Depth

Station Depth Elevation

Earthquake Activity

City Distance Mag. Time & Date
Minimum magnitude displayed is 2.5.

Coastal Water Temperatures

Place Temperature

Stations

Nearby Weather Stations

Station Location Temp. Windchill Dew Point Humidity Wind Precip. Elev Updated Type
                   

Watches & Warnings

Winter Weather Advisory
Issued: 12:04 PM EST Feb. 9, 2016 – National Weather Service

... Winter Weather Advisory remains in effect until 6 am EST
Wednesday...

* hazard types... snow.

* Accumulations... snow accumulations of 1 to 2 inches are
expected.

* Timing... snow showers are expected this afternoon into Wednesday
morning... bringing additional accumulations to the region.

Precautionary/preparedness actions...

Remember... a Winter Weather Advisory for snow means that periods
of snow will cause primarily travel difficulties. Be prepared for
snow covered roads and limited visibilities... and use caution
while driving. Stay tuned to NOAA Weather Radio or your favorite
source of information for the latest updates. Additional details
can also be found at www.Weather.Gov/iln as well as on our
facebook and twitter pages.